createdAt,value
2019-02-19T00:05:01.815Z,24.50
2019-02-19T00:10:06.257Z,23.07
2019-02-19T00:15:10.285Z,23.60
2019-02-19T00:20:14.316Z,23.63
2019-02-19T00:25:18.359Z,24.27
2019-02-19T00:30:22.370Z,24.40
2019-02-19T00:35:26.394Z,23.90
2019-02-19T00:40:30.403Z,22.90
2019-02-19T00:45:34.427Z,20.20
2019-02-19T00:50:38.431Z,21.23
2019-02-19T00:55:42.461Z,20.87
2019-02-19T01:00:46.492Z,19.97
2019-02-19T01:05:50.517Z,21.47
2019-02-19T01:10:54.524Z,19.90
2019-02-19T01:15:58.576Z,20.77
2019-02-19T01:21:02.603Z,20.87
2019-02-19T01:26:06.635Z,19.90
2019-02-19T01:31:12.981Z,20.57
2019-02-19T01:36:17.028Z,20.90
2019-02-19T01:41:21.038Z,19.47
2019-02-19T01:46:25.055Z,18.77
2019-02-19T01:51:29.055Z,19.87
2019-02-19T01:56:33.070Z,19.33
2019-02-19T02:01:37.099Z,19.37
2019-02-19T02:06:41.103Z,19.10
2019-02-19T02:11:45.129Z,18.40
2019-02-19T02:16:49.140Z,18.77
2019-02-19T02:21:53.219Z,18.83
2019-02-19T02:26:57.217Z,17.97
2019-02-19T02:32:01.234Z,18.33
2019-02-19T02:37:05.238Z,17.87
2019-02-19T02:42:09.381Z,19.00
2019-02-19T02:47:13.426Z,19.13
2019-02-19T02:52:17.442Z,18.13
2019-02-19T02:57:21.480Z,18.27
2019-02-19T03:02:25.485Z,17.67
2019-02-19T03:07:39.000Z,18.87
2019-02-19T03:12:43.038Z,16.80
2019-02-19T03:17:48.075Z,17.90
2019-02-19T03:22:52.049Z,16.60
2019-02-19T03:27:56.056Z,17.57
2019-02-19T03:33:00.069Z,17.40
2019-02-19T03:38:04.104Z,16.63
2019-02-19T03:43:08.107Z,17.50
2019-02-19T03:48:12.133Z,17.80
2019-02-19T03:53:16.155Z,17.33
2019-02-19T03:58:20.282Z,16.97
2019-02-19T04:03:27.353Z,17.53
2019-02-19T04:08:31.383Z,16.87
2019-02-19T04:13:35.421Z,16.70
2019-02-19T04:18:39.509Z,17.53
2019-02-19T04:23:43.546Z,17.37
2019-02-19T04:28:47.570Z,15.67
2019-02-19T04:33:51.589Z,17.80
2019-02-19T04:38:55.653Z,16.90
2019-02-19T04:43:59.682Z,16.43
2019-02-19T04:49:03.714Z,17.30
2019-02-19T04:54:07.727Z,17.87
2019-02-19T04:59:11.760Z,15.63
2019-02-19T05:04:15.780Z,16.33
2019-02-19T05:09:19.831Z,16.20
2019-02-19T05:14:23.862Z,16.77
2019-02-19T05:19:27.860Z,15.63
2019-02-19T05:24:31.872Z,17.73
2019-02-19T05:29:35.878Z,16.03
2019-02-19T05:34:39.892Z,17.00
2019-02-19T05:39:43.907Z,16.53
2019-02-19T05:44:47.988Z,15.73
2019-02-19T05:49:52.014Z,15.93
2019-02-19T05:54:57.768Z,16.60
2019-02-19T06:00:01.850Z,16.20
2019-02-19T06:05:07.637Z,17.07
2019-02-19T06:10:12.527Z,16.57
2019-02-19T06:15:16.543Z,16.30
2019-02-19T06:20:20.565Z,16.57
2019-02-19T06:25:24.688Z,16.43
2019-02-19T06:30:28.698Z,15.60
2019-02-19T06:35:32.719Z,15.73
2019-02-19T06:40:36.750Z,15.60
2019-02-19T06:45:40.766Z,16.90
2019-02-19T06:50:44.781Z,16.03
2019-02-19T06:55:48.812Z,17.43
2019-02-19T07:00:52.913Z,16.23
2019-02-19T07:05:56.924Z,15.97
2019-02-19T07:11:00.977Z,16.73
2019-02-19T07:16:05.001Z,15.27
2019-02-19T07:21:09.043Z,15.63
2019-02-19T07:26:13.131Z,16.33
2019-02-19T07:31:17.206Z,16.20
2019-02-19T07:36:21.206Z,15.37
2019-02-19T07:41:25.207Z,16.93
2019-02-19T07:46:29.260Z,15.63
2019-02-19T07:51:33.287Z,16.17
2019-02-19T07:56:37.323Z,15.93
2019-02-19T08:01:41.332Z,15.23
2019-02-19T08:06:45.356Z,16.10
2019-02-19T08:11:49.406Z,16.40
2019-02-19T08:16:53.468Z,14.73
2019-02-19T08:21:57.509Z,15.07
2019-02-19T08:27:01.542Z,15.60
2019-02-19T08:32:05.623Z,15.13
2019-02-19T08:37:09.667Z,14.93
2019-02-19T08:42:13.696Z,14.57
2019-02-19T08:47:17.731Z,15.67
2019-02-19T08:52:21.735Z,15.47
2019-02-19T08:57:25.745Z,16.30
2019-02-19T09:02:29.775Z,16.03
2019-02-19T09:07:33.784Z,17.37
2019-02-19T09:12:37.793Z,18.00
2019-02-19T09:17:41.804Z,18.77
2019-02-19T09:22:45.842Z,19.50
2019-02-19T09:27:49.853Z,18.27
2019-02-19T09:32:53.922Z,17.53
2019-02-19T09:37:57.969Z,21.70
2019-02-19T09:43:01.972Z,21.53
2019-02-19T09:48:05.989Z,21.03
2019-02-19T09:53:10.005Z,20.03
2019-02-19T09:58:14.032Z,19.97
2019-02-19T10:03:18.233Z,22.93
2019-02-19T10:08:22.281Z,22.70
2019-02-19T10:13:26.367Z,22.07
2019-02-19T10:18:30.406Z,22.03
2019-02-19T10:23:34.423Z,23.23
2019-02-19T10:28:38.446Z,21.97
2019-02-19T10:33:42.458Z,22.27
2019-02-19T10:38:46.532Z,23.80
2019-02-19T10:43:50.554Z,23.20
2019-02-19T10:48:54.579Z,22.53
2019-02-19T10:53:58.610Z,22.60
2019-02-19T10:59:02.734Z,18.60
2019-02-19T11:04:06.765Z,21.97
2019-02-19T11:09:10.787Z,21.30
2019-02-19T11:14:14.851Z,21.60
2019-02-19T11:19:18.913Z,20.97
2019-02-19T11:24:22.951Z,21.40
2019-02-19T11:29:26.998Z,20.43
2019-02-19T11:34:31.016Z,19.77
2019-02-19T11:39:35.048Z,20.13
2019-02-19T11:44:39.081Z,16.03
2019-02-19T11:49:43.100Z,19.77
2019-02-19T11:54:47.125Z,19.20
2019-02-19T11:59:51.152Z,20.30
2019-02-19T12:04:55.160Z,19.60
2019-02-19T12:09:59.207Z,20.23
2019-02-19T12:15:03.252Z,19.20
2019-02-19T12:20:07.333Z,19.03
2019-02-19T12:25:11.376Z,18.80
2019-02-19T12:30:15.809Z,19.20
2019-02-19T12:35:19.830Z,18.00
2019-02-19T12:40:23.885Z,17.90
2019-02-19T12:45:27.901Z,18.00
2019-02-19T12:50:31.921Z,18.70
2019-02-19T12:55:35.951Z,19.67
2019-02-19T13:00:39.970Z,18.07
2019-02-19T13:05:43.987Z,17.10
2019-02-19T13:10:48.026Z,19.27
2019-02-19T13:15:52.043Z,17.53
2019-02-19T13:20:56.086Z,17.53
2019-02-19T13:26:00.168Z,16.43
2019-02-19T13:31:04.241Z,18.10
2019-02-19T13:36:08.548Z,16.73
2019-02-19T13:41:12.627Z,17.50
2019-02-19T13:46:16.661Z,17.00
2019-02-19T13:51:20.668Z,16.90
2019-02-19T13:56:24.721Z,16.40
2019-02-19T14:01:28.783Z,14.13
2019-02-19T14:06:32.798Z,12.50
2019-02-19T14:11:36.962Z,11.03
2019-02-19T14:16:47.307Z,11.83
2019-02-19T14:22:10.276Z,11.33
2019-02-19T14:27:32.079Z,11.83
2019-02-19T14:33:19.120Z,10.97
2019-02-19T14:38:57.574Z,10.70
2019-02-19T14:44:19.517Z,11.60
2019-02-19T14:49:55.135Z,10.87
2019-02-19T14:55:24.861Z,10.50
2019-02-19T15:00:47.845Z,10.47
2019-02-19T15:06:01.794Z,9.90
2019-02-19T15:11:23.676Z,10.33
2019-02-19T15:16:38.737Z,9.83
2019-02-19T15:22:07.678Z,10.53
2019-02-19T15:27:33.734Z,10.10
2019-02-19T15:33:00.009Z,10.90
2019-02-19T15:38:35.385Z,10.67
2019-02-19T15:43:50.495Z,8.60
2019-02-19T15:49:12.143Z,9.83
2019-02-19T15:54:47.057Z,8.77
2019-02-19T16:00:02.191Z,8.83
2019-02-19T16:05:23.950Z,8.37
2019-02-19T16:10:33.792Z,9.60
2019-02-19T16:16:08.700Z,9.47
2019-02-19T16:21:22.404Z,8.03
2019-02-19T16:26:44.332Z,8.80
2019-02-19T16:32:02.511Z,8.00
2019-02-19T16:37:21.706Z,8.73
2019-02-19T16:42:53.937Z,8.33
2019-02-19T16:48:15.908Z,6.97
2019-02-19T16:53:38.047Z,6.70
2019-02-19T16:59:07.569Z,6.87
2019-02-19T17:04:18.517Z,7.60
2019-02-19T17:09:32.980Z,6.47
2019-02-19T17:14:54.913Z,7.30
2019-02-19T17:20:28.575Z,6.50
2019-02-19T17:25:50.661Z,10.57
2019-02-19T17:31:16.672Z,7.07
2019-02-19T17:36:25.806Z,5.87
2019-02-19T17:41:43.970Z,6.43
2019-02-19T17:47:00.398Z,6.60
2019-02-19T17:52:12.020Z,11.20
2019-02-19T17:57:38.070Z,7.03
2019-02-19T18:02:59.962Z,6.20
2019-02-19T18:08:27.106Z,6.43
2019-02-19T18:13:55.800Z,6.27
2019-02-19T18:18:59.812Z,5.17
2019-02-19T18:24:03.832Z,5.20
2019-02-19T18:29:07.898Z,5.37
2019-02-19T18:34:11.958Z,5.47
2019-02-19T18:39:16.020Z,5.27
2019-02-19T18:44:20.156Z,6.40
2019-02-19T18:49:24.197Z,5.80
2019-02-19T18:54:28.213Z,5.23
2019-02-19T18:59:32.216Z,4.27
2019-02-19T19:04:36.473Z,5.13
2019-02-19T19:09:40.726Z,5.00
2019-02-19T19:14:44.767Z,4.77
2019-02-19T19:19:48.816Z,4.30
2019-02-19T19:24:52.878Z,4.80
2019-02-19T19:29:56.935Z,4.90
2019-02-19T19:35:00.995Z,6.20
2019-02-19T19:40:05.203Z,6.27
2019-02-19T19:45:09.473Z,4.70
2019-02-19T19:50:13.619Z,7.87
2019-02-19T19:55:22.313Z,6.70
2019-02-19T20:00:26.737Z,6.83
2019-02-19T20:05:31.218Z,7.23
2019-02-19T20:10:35.806Z,6.73
2019-02-19T20:15:41.883Z,5.60
2019-02-19T20:20:47.197Z,5.73
2019-02-19T20:25:52.773Z,5.50
2019-02-19T20:30:57.895Z,5.53
2019-02-19T20:36:02.981Z,6.27
2019-02-19T20:41:08.265Z,6.60
2019-02-19T20:46:13.409Z,6.20
2019-02-19T20:51:18.324Z,5.70
2019-02-19T20:56:23.478Z,5.93
2019-02-19T21:01:28.137Z,6.80
2019-02-19T21:06:32.386Z,7.17
2019-02-19T21:11:36.717Z,6.93
2019-02-19T21:16:40.919Z,7.10
2019-02-19T21:21:45.304Z,7.47
2019-02-19T21:26:49.659Z,7.77
2019-02-19T21:31:53.709Z,8.30
2019-02-19T21:36:57.759Z,7.97
2019-02-19T21:42:02.109Z,7.77
2019-02-19T21:47:06.120Z,8.37
2019-02-19T21:52:10.275Z,7.13
2019-02-19T21:57:14.506Z,6.73
2019-02-19T22:02:18.528Z,7.67
2019-02-19T22:07:22.539Z,7.03
2019-02-19T22:12:26.578Z,8.97
2019-02-19T22:17:30.629Z,7.43
2019-02-19T22:22:35.040Z,7.10
2019-02-19T22:27:39.074Z,8.00
2019-02-19T22:32:43.096Z,6.37
2019-02-19T22:37:47.107Z,6.50
2019-02-19T22:42:54.950Z,5.53
2019-02-19T22:48:00.062Z,5.93
2019-02-19T22:53:08.437Z,5.73
2019-02-19T22:58:12.480Z,7.80
2019-02-19T23:03:17.717Z,5.90
2019-02-19T23:08:21.724Z,6.07
2019-02-19T23:13:25.746Z,6.03
2019-02-19T23:18:29.787Z,6.27
2019-02-19T23:23:33.811Z,6.70
2019-02-19T23:28:37.845Z,7.20
2019-02-19T23:33:41.875Z,6.83
2019-02-19T23:38:45.932Z,7.33
2019-02-19T23:43:49.972Z,8.07
2019-02-19T23:48:54.023Z,12.87
2019-02-19T23:53:58.134Z,8.83
2019-02-19T23:59:02.151Z,8.30
